メインページ
METAR-TAF:

METAR-TAF

空港 :

エルシリオ・ルス国際空港

フロリアノーポリス, サンタカタリーナ州, ブラジル

緯度: 27-40S, 経度: 048-33W, 海抜: 5m

現時点の気象観測

当レポートは45分前の11:00(UTC)に作成
西の風 2kt
気温 14°C
湿度 88%
気圧 1019 hPa
視程10km以上
1,500メートル以下は雲なし、積乱雲なし

METAR: SBFL 221100Z 28002KT CAVOK 14/12 Q1019

時間: 08:45 (11:45 UTC)

予報

当レポートは2時間45分前の09:00(UTC)に作成
予報は22日の 12時(UTC)から 23日の 12時(UTC)まで有効
西の風 5kt
視程10km以上
1,500メートル以下は雲なし、積乱雲なし
22日の 14時(UTC)から 22日の 16時(UTC)まで徐々に
の風 10kt
23日の 00時(UTC)から 23日の 02時(UTC)まで徐々に
視程10km以上
高度2000ftの千切れ雲あり

TAF: SBFL 220900Z 2212/2312 28005KT CAVOK TX22/2218Z TN15/2309Z BECMG 2214/2216 18010KT BECMG 2300/2302 9999 BKN020 RMK PDJ

4,000以上の空港の気象観測と天気予報(METAR報とTAF報)

利用可能な観測所は地図上に黄色い丸と赤い丸で示す。

丸の上にカーソルを重ねると観測所名を参照できる。

次にクリックすると気象観測と天気予報を参照できる。

マップの切り替え:黒色「×」印の緑ボタンをクリックして拡大、「-」印の緑ボタンをクリックして縮小、緑色の三角印をクリックして隣りの地図に切り替え


METAR-TAF: